Time;durP1;ratioP1;P1;durP2;ratioP2;P2;SDS_P1;SDS_P2;PMS_P1;PMS_P2;Temp;Humidity;BMP_temperature;BMP_pressure;BME280_temperature;BME280_humidity;BME280_pressure;Samples;Min_cycle;Max_cycle;Signal;HPM_P1;HPM_P2
2022/06/01 00:01:33;;;;;;;18.77;14.02;;;10.80;99.90;;;;;;4787706;29;20360;-73
2022/06/01 00:03:59;;;;;;;19.45;13.00;;;10.80;99.90;;;;;;4787619;29;20024;-72
2022/06/01 00:06:26;;;;;;;19.42;14.43;;;10.80;99.90;;;;;;4787681;29;20110;-72
2022/06/01 00:08:52;;;;;;;18.08;13.52;;;10.70;99.90;;;;;;4787931;29;20032;-72
2022/06/01 00:11:17;;;;;;;20.15;14.15;;;10.70;99.90;;;;;;4787464;29;20027;-72
2022/06/01 00:13:43;;;;;;;20.13;14.73;;;10.70;99.90;;;;;;4787315;30;20408;-72
2022/06/01 00:16:09;;;;;;;21.67;14.07;;;10.70;99.90;;;;;;4787577;29;20051;-72
2022/06/01 00:18:36;;;;;;;20.02;13.73;;;10.80;99.90;;;;;;4787468;30;20061;-73
2022/06/01 00:21:03;;;;;;;20.02;14.20;;;10.70;99.90;;;;;;4786893;29;20023;-72
2022/06/01 00:23:30;;;;;;;16.33;12.93;;;10.70;99.90;;;;;;4787608;29;20024;-73
2022/06/01 00:25:58;;;;;;;18.27;13.80;;;10.70;99.90;;;;;;4787399;29;20118;-73
2022/06/01 00:28:23;;;;;;;18.77;14.00;;;10.70;99.90;;;;;;4787825;30;20023;-72
2022/06/01 00:30:49;;;;;;;17.95;14.27;;;10.60;99.90;;;;;;4787273;30;20032;-72
2022/06/01 00:33:14;;;;;;;17.38;13.73;;;10.60;99.90;;;;;;4787266;30;20063;-72
2022/06/01 00:35:40;;;;;;;20.23;14.55;;;10.70;99.90;;;;;;4787285;30;20035;-72
2022/06/01 00:38:06;;;;;;;20.83;13.35;;;10.60;99.90;;;;;;4787333;30;20031;-73
2022/06/01 00:40:32;;;;;;;18.20;13.02;;;10.60;99.90;;;;;;4787329;29;20403;-73
2022/06/01 00:43:00;;;;;;;17.73;13.35;;;10.60;99.90;;;;;;4787201;29;20539;-72
2022/06/01 00:45:28;;;;;;;20.13;14.02;;;10.60;99.90;;;;;;4787075;29;20434;-73
2022/06/01 00:47:55;;;;;;;18.63;13.25;;;10.60;99.90;;;;;;4787248;29;20472;-73
2022/06/01 00:50:26;;;;;;;17.75;12.70;;;10.60;99.90;;;;;;4787184;29;20028;-72
2022/06/01 00:53:01;;;;;;;18.25;13.82;;;10.50;99.90;;;;;;4787142;29;20038;-73
2022/06/01 00:55:32;;;;;;;16.58;12.93;;;10.50;99.90;;;;;;4787065;29;20084;-72
2022/06/01 00:58:20;;;;;;;17.80;12.95;;;10.50;99.90;;;;;;4787275;29;20430;-73
2022/06/01 01:00:47;;;;;;;16.50;12.20;;;10.50;99.90;;;;;;4787227;29;20035;-73
2022/06/01 01:03:15;;;;;;;15.65;12.50;;;10.50;99.90;;;;;;4787231;29;20110;-72
2022/06/01 01:05:45;;;;;;;18.38;12.80;;;10.50;99.90;;;;;;4786732;29;20040;-73
2022/06/01 01:08:11;;;;;;;15.45;12.68;;;10.40;99.90;;;;;;4786987;29;20035;-73
2022/06/01 01:10:37;;;;;;;16.23;12.55;;;10.50;99.90;;;;;;4786937;29;20032;-72
2022/06/01 01:13:08;;;;;;;16.00;12.27;;;10.40;99.90;;;;;;4787092;30;20377;-72
2022/06/01 01:15:52;;;;;;;17.23;12.23;;;10.40;99.90;;;;;;4787232;29;20082;-73
2022/06/01 01:18:20;;;;;;;17.17;12.25;;;10.40;99.90;;;;;;4787313;29;20039;-72
2022/06/01 01:21:26;;;;;;;16.67;12.52;;;10.40;99.90;;;;;;4786987;29;20031;-72
2022/06/01 01:24:31;;;;;;;15.48;11.77;;;10.30;99.90;;;;;;4784620;29;20032;-72
2022/06/01 01:26:57;;;;;;;15.32;11.88;;;10.30;99.90;;;;;;4786945;29;20042;-72
2022/06/01 01:29:42;;;;;;;17.25;12.02;;;10.30;99.90;;;;;;4786886;29;20027;-73
2022/06/01 01:32:11;;;;;;;15.13;11.88;;;10.40;99.90;;;;;;4788715;29;20115;-73
2022/06/01 01:34:39;;;;;;;15.32;11.27;;;10.50;99.90;;;;;;4789980;29;20031;-73
2022/06/01 01:37:11;;;;;;;14.85;11.27;;;10.50;99.90;;;;;;4790098;29;20047;-73
2022/06/01 01:39:38;;;;;;;15.38;11.07;;;10.40;99.90;;;;;;4790169;29;20472;-73
2022/06/01 01:42:06;;;;;;;15.63;11.52;;;10.40;99.90;;;;;;4790069;29;20039;-72
2022/06/01 01:45:01;;;;;;;13.63;11.18;;;10.30;99.90;;;;;;4788621;30;20043;-72
2022/06/01 01:47:28;;;;;;;14.02;10.63;;;10.10;99.90;;;;;;4772160;30;20035;-73
2022/06/01 01:49:54;;;;;;;14.02;11.05;;;10.10;99.90;;;;;;4785572;30;20131;-72
2022/06/01 01:52:19;;;;;;;13.90;11.05;;;10.00;99.90;;;;;;4789691;30;20058;-73
2022/06/01 01:55:02;;;;;;;15.32;10.82;;;10.20;99.90;;;;;;4789806;30;20031;-73
2022/06/01 01:57:43;;;;;;;16.52;11.02;;;10.20;99.90;;;;;;4789876;29;20111;-72
2022/06/01 02:00:21;;;;;;;12.73;10.13;;;10.30;99.90;;;;;;4789771;29;20039;-73
2022/06/01 02:03:08;;;;;;;12.82;9.85;;;10.20;99.90;;;;;;4789888;29;20075;-72
2022/06/01 02:06:09;;;;;;;13.40;10.02;;;10.30;99.90;;;;;;4789586;30;20039;-73
2022/06/01 02:08:48;;;;;;;13.10;9.57;;;10.30;99.90;;;;;;4771776;30;20040;-72
2022/06/01 02:14:53;;;;;;;11.35;9.52;;;10.50;99.90;;;;;;4771503;30;20560;-72
2022/06/01 02:17:39;;;;;;;14.35;10.15;;;10.40;99.90;;;;;;4771676;30;20063;-72
2022/06/01 02:20:35;;;;;;;12.00;10.02;;;10.40;99.90;;;;;;4771874;30;20546;-72
2022/06/01 02:23:02;;;;;;;13.38;9.80;;;10.30;99.90;;;;;;4768239;30;20427;-72
2022/06/01 02:25:29;;;;;;;13.55;9.77;;;10.30;99.90;;;;;;4771237;30;20115;-72
2022/06/01 02:27:57;;;;;;;11.82;9.82;;;10.30;99.90;;;;;;4777474;30;20029;-73
2022/06/01 02:30:27;;;;;;;15.25;10.57;;;10.30;99.90;;;;;;4789117;30;20035;-72
2022/06/01 02:32:54;;;;;;;15.90;11.10;;;10.20;99.90;;;;;;4789516;29;20028;-72
2022/06/01 02:35:23;;;;;;;14.82;10.05;;;10.20;99.90;;;;;;4789292;29;20044;-72
2022/06/01 02:37:52;;;;;;;17.30;11.77;;;10.20;99.90;;;;;;4789213;29;20487;-72
2022/06/01 02:40:22;;;;;;;15.57;10.68;;;10.30;99.90;;;;;;4789081;29;20042;-72
2022/06/01 02:42:50;;;;;;;15.37;11.43;;;10.30;99.90;;;;;;4788644;29;20034;-72
2022/06/01 02:45:21;;;;;;;16.83;11.57;;;10.30;99.90;;;;;;4788862;29;20792;-72
2022/06/01 02:47:52;;;;;;;17.52;12.10;;;10.40;99.90;;;;;;4789011;29;20028;-71
2022/06/01 02:50:26;;;;;;;18.50;13.45;;;10.40;99.90;;;;;;4789003;29;20066;-71
2022/06/01 02:52:52;;;;;;;17.42;11.88;;;10.40;99.90;;;;;;4789205;29;20061;-71
2022/06/01 02:55:21;;;;;;;20.00;12.73;;;10.50;99.90;;;;;;4788847;29;20031;-72
2022/06/01 02:57:47;;;;;;;19.73;12.63;;;10.40;99.90;;;;;;4789021;29;20032;-72
2022/06/01 03:00:17;;;;;;;22.15;13.45;;;10.50;99.90;;;;;;4788707;29;20027;-72
2022/06/01 03:02:45;;;;;;;22.88;14.50;;;10.50;99.90;;;;;;4788437;29;20062;-72
2022/06/01 03:05:12;;;;;;;22.90;15.13;;;10.60;99.90;;;;;;4788579;29;20046;-72
2022/06/01 03:07:37;;;;;;;20.33;13.23;;;10.60;99.90;;;;;;4788573;29;20020;-73
2022/06/01 03:10:03;;;;;;;24.98;14.00;;;10.60;99.90;;;;;;4788306;30;20120;-73
2022/06/01 03:12:29;;;;;;;23.08;14.18;;;10.70;99.90;;;;;;4788400;30;20028;-72
2022/06/01 03:14:54;;;;;;;24.17;14.20;;;10.70;99.90;;;;;;4788282;30;20138;-72
2022/06/01 03:17:20;;;;;;;22.13;13.93;;;10.70;99.90;;;;;;4788394;30;20035;-72
2022/06/01 03:19:45;;;;;;;22.83;13.98;;;10.80;99.90;;;;;;4788367;30;20031;-72
2022/06/01 03:22:11;;;;;;;21.40;13.95;;;10.90;99.90;;;;;;4788277;30;20059;-72
2022/06/01 03:24:36;;;;;;;23.08;14.13;;;10.90;99.90;;;;;;4788431;30;20035;-72
2022/06/01 03:27:02;;;;;;;24.90;13.95;;;10.90;99.90;;;;;;4788364;30;20047;-72
2022/06/01 03:29:28;;;;;;;24.05;13.88;;;10.90;99.90;;;;;;4788464;29;20027;-73
2022/06/01 03:31:54;;;;;;;21.80;12.70;;;10.90;99.90;;;;;;4788238;30;20031;-72
2022/06/01 03:34:20;;;;;;;22.05;13.05;;;11.00;99.90;;;;;;4788224;29;20114;-72
2022/06/01 03:36:46;;;;;;;21.05;12.70;;;11.00;99.90;;;;;;4771655;30;20062;-73
2022/06/01 03:39:11;;;;;;;20.25;12.70;;;11.00;99.90;;;;;;4770584;30;20059;-72
2022/06/01 03:41:37;;;;;;;20.45;12.68;;;11.00;99.90;;;;;;4770461;30;20082;-72
2022/06/01 03:46:47;;;;;;;18.80;11.57;;;11.10;99.90;;;;;;4770205;30;20038;-72
2022/06/01 03:49:13;;;;;;;20.73;12.68;;;11.00;99.90;;;;;;4770121;30;20027;-72
2022/06/01 03:51:38;;;;;;;20.38;11.93;;;11.20;99.90;;;;;;4770044;30;20117;-72
2022/06/01 03:54:06;;;;;;;16.60;10.93;;;11.20;99.90;;;;;;4769901;30;20473;-72
2022/06/01 03:56:32;;;;;;;22.23;11.82;;;11.20;99.90;;;;;;4769787;30;20031;-72
2022/06/01 03:58:58;;;;;;;22.42;12.35;;;11.30;99.90;;;;;;4770355;30;20028;-72
2022/06/01 04:01:24;;;;;;;21.40;13.30;;;11.30;99.90;;;;;;4769973;30;20032;-73
2022/06/01 04:03:50;;;;;;;19.20;12.65;;;11.40;99.90;;;;;;4769828;30;20082;-72
2022/06/01 04:06:16;;;;;;;22.33;14.50;;;11.40;99.90;;;;;;4769741;30;20043;-72
2022/06/01 04:08:41;;;;;;;22.65;13.43;;;11.40;99.90;;;;;;4769763;30;20032;-73
2022/06/01 04:11:07;;;;;;;22.10;14.02;;;11.50;99.90;;;;;;4769578;30;20031;-72
2022/06/01 04:13:33;;;;;;;22.30;14.07;;;11.50;99.90;;;;;;4779818;30;20158;-73
2022/06/01 04:15:59;;;;;;;22.63;15.15;;;11.50;99.90;;;;;;4787065;29;20085;-73
2022/06/01 04:18:25;;;;;;;21.35;13.77;;;11.50;99.90;;;;;;4787491;29;20546;-73
2022/06/01 04:20:53;;;;;;;19.92;13.73;;;11.50;99.90;;;;;;4787538;29;20031;-72
2022/06/01 04:23:19;;;;;;;18.90;12.93;;;11.40;99.90;;;;;;4787325;29;20491;-72
2022/06/01 04:25:45;;;;;;;21.05;12.77;;;11.40;99.90;;;;;;4787388;29;20044;-73
2022/06/01 04:28:11;;;;;;;16.35;11.13;;;11.40;99.90;;;;;;4787543;29;20534;-73
2022/06/01 04:30:37;;;;;;;16.88;11.80;;;11.40;99.90;;;;;;4787399;29;20108;-73
2022/06/01 04:33:04;;;;;;;13.85;10.80;;;11.40;99.90;;;;;;4787370;30;20423;-73
2022/06/01 04:35:29;;;;;;;16.88;11.88;;;11.40;99.90;;;;;;4787285;29;20062;-73
2022/06/01 04:38:12;;;;;;;17.70;11.38;;;11.40;99.90;;;;;;4787164;30;20058;-73
2022/06/01 04:40:39;;;;;;;17.10;10.95;;;11.40;99.90;;;;;;4787529;30;20024;-74
2022/06/01 04:43:05;;;;;;;17.38;11.13;;;11.50;99.90;;;;;;4787163;29;20031;-72
2022/06/01 04:45:30;;;;;;;15.85;10.52;;;11.40;99.90;;;;;;4787252;30;20040;-72
2022/06/01 04:47:56;;;;;;;16.63;10.68;;;11.50;99.90;;;;;;4787120;30;20098;-73
2022/06/01 04:50:21;;;;;;;17.27;10.70;;;11.50;99.90;;;;;;4787119;29;20031;-73
2022/06/01 04:52:47;;;;;;;15.95;11.00;;;11.70;99.90;;;;;;4787169;29;20108;-73
2022/06/01 04:55:12;;;;;;;16.20;12.05;;;11.80;99.90;;;;;;4787156;29;20034;-74
2022/06/01 04:57:39;;;;;;;18.05;11.68;;;12.00;99.90;;;;;;4787048;29;20036;-73
2022/06/01 05:00:08;;;;;;;19.02;11.63;;;12.10;99.90;;;;;;4787378;29;20030;-73
2022/06/01 05:02:34;;;;;;;17.45;10.43;;;12.20;99.90;;;;;;4787037;29;20038;-73
2022/06/01 05:05:01;;;;;;;12.55;8.98;;;12.20;99.90;;;;;;4786879;29;20547;-73
2022/06/01 05:07:27;;;;;;;11.23;8.68;;;12.10;99.90;;;;;;4789622;29;20195;-73
2022/06/01 05:09:52;;;;;;;12.32;9.35;;;12.10;99.90;;;;;;4790513;29;20452;-72
2022/06/01 05:12:19;;;;;;;12.02;8.77;;;12.10;99.90;;;;;;4790415;30;20046;-73
2022/06/01 05:14:45;;;;;;;10.65;7.50;;;12.10;99.90;;;;;;4790246;30;20055;-72
2022/06/01 05:17:10;;;;;;;10.13;7.82;;;12.20;99.90;;;;;;4790421;29;20403;-72
2022/06/01 05:19:36;;;;;;;11.77;7.70;;;12.20;99.90;;;;;;4790308;29;20039;-72
2022/06/01 05:22:02;;;;;;;11.13;8.02;;;12.10;99.90;;;;;;4790348;29;20031;-72
2022/06/01 05:24:27;;;;;;;10.43;7.57;;;12.10;99.90;;;;;;4790052;29;20451;-73
2022/06/01 05:26:53;;;;;;;10.85;7.85;;;12.10;99.90;;;;;;4790277;30;20062;-72
2022/06/01 05:29:18;;;;;;;8.82;7.82;;;12.00;99.90;;;;;;4784514;30;20031;-73
2022/06/01 05:31:45;;;;;;;10.55;8.25;;;12.10;99.90;;;;;;4772297;30;20035;-73
2022/06/01 05:34:10;;;;;;;9.07;7.95;;;12.40;99.90;;;;;;4772282;30;20120;-73
2022/06/01 05:36:36;;;;;;;11.82;9.55;;;12.40;99.90;;;;;;4772230;30;20107;-72
2022/06/01 05:39:03;;;;;;;11.23;7.82;;;12.50;99.90;;;;;;4772343;30;20485;-73
2022/06/01 05:41:29;;;;;;;10.65;8.00;;;12.70;99.90;;;;;;4789573;30;20031;-72
2022/06/01 05:43:55;;;;;;;11.57;8.32;;;12.70;99.90;;;;;;4789997;29;20369;-73
2022/06/01 05:46:21;;;;;;;10.70;8.20;;;12.70;99.90;;;;;;4789924;30;20550;-73
2022/06/01 05:48:47;;;;;;;12.18;7.78;;;12.90;99.90;;;;;;4789527;29;20503;-73
2022/06/01 05:51:13;;;;;;;10.73;7.50;;;12.90;99.90;;;;;;4789347;30;20044;-73
2022/06/01 05:53:38;;;;;;;10.63;7.50;;;13.10;99.90;;;;;;4788758;30;20101;-73
2022/06/01 05:56:04;;;;;;;9.85;7.47;;;13.30;99.90;;;;;;4789821;30;20111;-72
2022/06/01 05:58:30;;;;;;;9.88;7.40;;;13.40;99.90;;;;;;4789771;30;20032;-73
2022/06/01 06:01:01;;;;;;;11.23;7.32;;;13.50;99.90;;;;;;4789700;29;20055;-72
2022/06/01 06:03:27;;;;;;;7.78;7.00;;;13.70;99.90;;;;;;4775524;29;20111;-72
2022/06/01 06:06:12;;;;;;;9.90;6.85;;;13.90;99.90;;;;;;4771659;30;20115;-72
2022/06/01 06:08:40;;;;;;;8.98;6.93;;;13.70;99.90;;;;;;4771805;30;20055;-72
2022/06/01 06:11:06;;;;;;;8.85;6.55;;;13.60;99.90;;;;;;4771489;30;20028;-73
2022/06/01 06:13:36;;;;;;;9.68;7.82;;;13.70;99.90;;;;;;4773478;30;20060;-72
2022/06/01 06:16:03;;;;;;;8.33;7.43;;;13.50;99.90;;;;;;4789564;29;20134;-73
2022/06/01 06:18:29;;;;;;;9.55;7.43;;;13.00;99.90;;;;;;4788211;29;20963;-72
2022/06/01 06:20:55;;;;;;;10.98;7.75;;;13.50;99.90;;;;;;4788022;29;20112;-73
2022/06/01 06:23:21;;;;;;;13.27;8.25;;;13.60;99.90;;;;;;4789167;29;20057;-72
2022/06/01 06:25:47;;;;;;;9.20;6.95;;;13.90;99.90;;;;;;4789139;29;20407;-73
2022/06/01 06:28:13;;;;;;;7.00;6.03;;;14.40;99.90;;;;;;4788490;29;20032;-73
2022/06/01 06:30:39;;;;;;;7.88;6.15;;;14.80;99.90;;;;;;4788697;29;20031;-73
2022/06/01 06:33:06;;;;;;;8.77;5.97;;;14.70;99.90;;;;;;4789263;29;20027;-73
2022/06/01 06:35:32;;;;;;;8.15;6.28;;;14.30;99.90;;;;;;4789209;29;20063;-73
2022/06/01 06:37:58;;;;;;;7.28;6.00;;;15.10;99.90;;;;;;4789120;29;20035;-73
2022/06/01 06:40:23;;;;;;;6.63;5.97;;;19.20;99.90;;;;;;4789103;29;20034;-73
2022/06/01 06:42:49;;;;;;;6.35;5.75;;;23.60;99.90;;;;;;4789197;29;20115;-73
2022/06/01 06:45:15;;;;;;;6.65;5.15;;;26.80;99.90;;;;;;4788900;29;20469;-72
2022/06/01 06:47:42;;;;;;;6.93;5.05;;;28.00;99.90;;;;;;4789087;29;20354;-73
2022/06/01 06:50:10;;;;;;;4.88;4.47;;;28.30;99.90;;;;;;4789064;29;20061;-74
2022/06/01 06:52:36;;;;;;;10.93;4.97;;;24.30;99.90;;;;;;4789005;29;20110;-73
2022/06/01 06:55:02;;;;;;;5.00;3.38;;;26.60;99.90;;;;;;4788813;29;20110;-73
2022/06/01 06:57:28;;;;;;;4.80;3.30;;;29.40;99.90;;;;;;4788848;29;20134;-73
2022/06/01 06:59:53;;;;;;;3.53;2.67;;;27.80;99.90;;;;;;4788777;29;20874;-73
2022/06/01 07:02:19;;;;;;;2.33;2.13;;;25.20;99.90;;;;;;4788892;29;20551;-73
2022/06/01 07:04:46;;;;;;;4.28;3.47;;;29.80;99.90;;;;;;4788594;30;20041;-74
2022/06/01 07:07:13;;;;;;;2.80;2.60;;;30.50;99.90;;;;;;4788907;29;20488;-74
2022/06/01 07:12:14;;;;;;;3.75;3.17;;;30.80;99.90;;;;;;4296059;24;20062;-73
2022/06/01 07:14:40;;;;;;;3.47;2.83;;;26.00;99.90;;;;;;4788136;30;20039;-72
2022/06/01 07:17:06;;;;;;;4.00;2.70;;;25.70;99.90;;;;;;4788372;30;20463;-72
2022/06/01 07:19:33;;;;;;;3.25;2.90;;;25.30;99.90;;;;;;4787852;29;20051;-74
2022/06/01 07:21:58;;;;;;;2.75;2.55;;;24.90;99.90;;;;;;4788076;29;20043;-72
2022/06/01 07:24:24;;;;;;;2.60;2.40;;;25.00;99.90;;;;;;4788212;30;20045;-72
2022/06/01 07:26:50;;;;;;;2.80;2.60;;;27.70;99.90;;;;;;4788322;30;20032;-72
2022/06/01 07:29:18;;;;;;;2.90;2.70;;;22.40;99.90;;;;;;4788203;29;20058;-72
2022/06/01 07:31:45;;;;;;;4.82;3.50;;;22.80;99.90;;;;;;4788346;29;20576;-72
2022/06/01 07:34:11;;;;;;;3.15;2.78;;;25.10;99.90;;;;;;4787870;30;20372;-72
2022/06/01 07:36:37;;;;;;;3.10;2.90;;;29.60;99.90;;;;;;4787846;29;20027;-72
2022/06/01 07:44:38;;;;;;;3.20;2.90;;;27.10;1.00;;;;;;4771575;30;20047;-72
2022/06/01 07:47:05;;;;;;;3.70;3.38;;;28.30;1.00;;;;;;4787789;30;20043;-72
2022/06/01 07:49:30;;;;;;;2.92;2.72;;;29.80;99.90;;;;;;4799994;29;20514;-72
2022/06/01 07:51:56;;;;;;;3.33;3.03;;;28.40;99.90;;;;;;4805614;29;20043;-72
2022/06/01 07:54:22;;;;;;;3.53;3.22;;;28.80;99.90;;;;;;4805366;29;20076;-72
2022/06/01 07:56:49;;;;;;;3.42;3.13;;;27.90;99.90;;;;;;4790530;29;20067;-71
2022/06/01 07:59:15;;;;;;;4.53;3.60;;;30.40;99.90;;;;;;4784840;30;20030;-71
2022/06/01 08:01:41;;;;;;;2.90;2.70;;;34.50;99.90;;;;;;4770048;30;20111;-72
2022/06/01 08:04:08;;;;;;;4.78;3.17;;;35.00;99.90;;;;;;4784959;30;20032;-72
2022/06/01 08:06:36;;;;;;;3.10;2.90;;;35.80;99.90;;;;;;4787475;29;20100;-72
2022/06/01 08:09:02;;;;;;;3.70;3.40;;;37.20;99.90;;;;;;4787497;29;20027;-72
2022/06/01 08:14:13;;;;;;;2.88;2.63;;;30.40;99.90;;;;;;4782103;30;20038;-71
2022/06/01 08:16:40;;;;;;;2.95;2.72;;;27.40;99.90;;;;;;4785957;30;20778;-72
2022/06/01 08:19:07;;;;;;;3.72;3.42;;;25.60;99.90;;;;;;4787203;30;20046;-71
2022/06/01 08:21:34;;;;;;;3.88;3.00;;;22.40;1.00;;;;;;4782151;29;20024;-71
2022/06/01 08:24:00;;;;;;;3.33;3.10;;;21.90;93.00;;;;;;4768756;30;20067;-71
2022/06/01 08:26:26;;;;;;;3.63;3.33;;;20.10;99.90;;;;;;4768730;30;20117;-71
2022/06/01 08:28:52;;;;;;;4.07;3.47;;;19.30;99.90;;;;;;4769032;30;20063;-71
2022/06/01 08:31:18;;;;;;;4.25;3.58;;;19.70;99.90;;;;;;4769015;30;20036;-71
2022/06/01 08:33:43;;;;;;;3.92;3.63;;;19.20;99.90;;;;;;4769181;30;20039;-71
2022/06/01 08:36:09;;;;;;;3.88;3.40;;;19.50;99.90;;;;;;4769025;30;20036;-71
2022/06/01 08:38:35;;;;;;;3.78;3.47;;;19.40;99.90;;;;;;4769071;30;20091;-71
2022/06/01 08:41:09;;;;;;;3.78;3.33;;;19.40;99.90;;;;;;4767920;30;20114;-71
2022/06/01 08:43:49;;;;;;;3.90;3.60;;;19.40;99.90;;;;;;4765503;30;20111;-72
2022/06/01 08:46:15;;;;;;;4.22;3.83;;;19.50;99.90;;;;;;4769553;30;20043;-72
2022/06/01 08:48:50;;;;;;;3.90;3.50;;;19.50;99.90;;;;;;4777174;30;20040;-71
2022/06/01 08:51:19;;;;;;;3.97;3.65;;;19.50;99.90;;;;;;4786957;30;20536;-72
2022/06/01 08:53:44;;;;;;;4.47;4.07;;;19.60;99.90;;;;;;4786955;30;20073;-71
2022/06/01 08:56:15;;;;;;;4.15;3.60;;;19.70;99.90;;;;;;4786849;29;20435;-72
2022/06/01 08:58:47;;;;;;;3.30;3.00;;;20.00;99.90;;;;;;4768941;30;20373;-71
2022/06/01 09:01:45;;;;;;;5.43;4.05;;;20.20;99.90;;;;;;4769080;30;20039;-71
2022/06/01 09:04:47;;;;;;;3.80;3.28;;;20.10;99.90;;;;;;4758940;30;20412;-70
2022/06/01 09:07:38;;;;;;;3.63;3.28;;;19.90;99.90;;;;;;4765586;30;20042;-71
2022/06/01 09:10:21;;;;;;;3.58;3.28;;;19.50;99.90;;;;;;4766158;30;20032;-71
2022/06/01 09:12:51;;;;;;;3.97;3.45;;;18.90;99.90;;;;;;4767581;30;20610;-71
2022/06/01 09:15:23;;;;;;;3.60;3.17;;;18.90;99.90;;;;;;4769083;30;20067;-72
2022/06/01 09:17:48;;;;;;;3.80;3.40;;;25.60;1.00;;;;;;4768955;30;20487;-72
2022/06/01 09:23:08;;;;;;;4.70;2.67;;;25.00;99.90;;;;;;4753514;30;20039;-72
2022/06/01 09:25:38;;;;;;;4.10;3.10;;;29.60;99.90;;;;;;4768858;30;20648;-72
2022/06/01 09:28:25;;;;;;;3.55;3.25;;;30.10;99.90;;;;;;4768795;30;20028;-72
2022/06/01 09:31:09;;;;;;;3.25;2.95;;;27.20;99.90;;;;;;4768850;30;20035;-72
2022/06/01 09:33:40;;;;;;;4.13;3.13;;;29.10;99.90;;;;;;4768677;30;20671;-72
2022/06/01 09:36:08;;;;;;;3.20;2.90;;;29.00;99.90;;;;;;4768613;30;20048;-71
2022/06/01 09:38:53;;;;;;;3.00;2.63;;;25.40;99.90;;;;;;4768773;30;20028;-72
2022/06/01 09:41:21;;;;;;;2.13;1.92;;;23.30;1.00;;;;;;4769881;30;20024;-72
2022/06/01 09:44:01;;;;;;;2.47;1.92;;;21.90;17.90;;;;;;4778684;30;20036;-72
2022/06/01 09:46:34;;;;;;;1.70;1.60;;;21.20;98.00;;;;;;4781089;30;20046;-72
2022/06/01 09:49:04;;;;;;;2.05;1.20;;;25.60;1.00;;;;;;4774791;29;20047;-72
2022/06/01 09:51:33;;;;;;;4.00;2.85;;;28.60;99.90;;;;;;4766619;30;20039;-72
2022/06/01 09:54:24;;;;;;;3.95;2.35;;;26.30;99.90;;;;;;4770388;30;20511;-73
2022/06/01 09:56:50;;;;;;;2.38;2.17;;;23.90;99.90;;;;;;4761241;30;20031;-72
2022/06/01 10:08:20;;;;;;;4.18;2.30;;;20.90;99.90;;;;;;4754017;30;20098;-72
2022/06/01 10:10:58;;;;;;;2.92;2.47;;;20.60;99.90;;;;;;4751677;30;20032;-73
2022/06/01 10:13:38;;;;;;;9.48;2.75;;;20.80;99.90;;;;;;4767039;30;20036;-72
2022/06/01 10:16:22;;;;;;;3.50;2.58;;;20.60;64.90;;;;;;4762223;30;20031;-72
2022/06/01 10:18:48;;;;;;;4.63;2.65;;;20.30;99.90;;;;;;4769065;30;20031;-73
2022/06/01 10:21:20;;;;;;;8.45;3.33;;;19.10;1.00;;;;;;4768630;30;20024;-71
2022/06/01 10:23:54;;;;;;;6.43;2.60;;;17.40;1.00;;;;;;4782744;30;20039;-72
2022/06/01 10:26:23;;;;;;;3.30;0.93;;;16.40;99.90;;;;;;4773501;30;20038;-72
2022/06/01 10:29:30;;;;;;;1.97;1.30;;;15.80;99.90;;;;;;4771292;30;20040;-73
2022/06/01 10:32:03;;;;;;;2.35;2.00;;;16.20;99.90;;;;;;4768501;30;20089;-72
2022/06/01 10:34:36;;;;;;;2.15;1.80;;;17.30;99.90;;;;;;4768642;30;20574;-72
2022/06/01 10:37:03;;;;;;;2.90;2.45;;;19.70;99.90;;;;;;4759957;30;20068;-72
2022/06/01 10:39:35;;;;;;;3.00;2.53;;;21.40;74.00;;;;;;4760043;30;20484;-72
2022/06/01 10:42:06;;;;;;;3.50;2.53;;;21.20;1.00;;;;;;4771327;30;20085;-72
2022/06/01 10:44:44;;;;;;;3.40;2.78;;;20.70;88.10;;;;;;4770955;30;20392;-72
2022/06/01 10:47:28;;;;;;;3.00;2.38;;;20.80;35.40;;;;;;4754523;30;20121;-72
2022/06/01 10:50:16;;;;;;;1.48;1.00;;;20.60;1.00;;;;;;4774881;30;20033;-72
2022/06/01 10:52:46;;;;;;;1.95;1.08;;;22.90;1.00;;;;;;4753485;30;20644;-72
2022/06/01 10:55:15;;;;;;;1.92;1.00;;;26.60;99.90;;;;;;4753090;30;20419;-73
2022/06/01 10:57:43;;;;;;;5.88;0.90;;;27.60;1.00;;;;;;4761135;30;20024;-73
2022/06/01 11:00:16;;;;;;;1.10;0.93;;;28.10;1.00;;;;;;4768512;30;20023;-72
2022/06/01 11:02:47;;;;;;;0.90;0.90;;;29.10;99.90;;;;;;4762010;30;20047;-72
2022/06/01 11:05:34;;;;;;;1.50;1.40;;;28.80;99.90;;;;;;4770210;30;20096;-71
2022/06/01 11:08:38;;;;;;;1.80;1.70;;;28.60;99.90;;;;;;4769962;30;20545;-72
2022/06/01 11:11:11;;;;;;;1.98;1.83;;;25.20;1.00;;;;;;4767308;30;20519;-71
2022/06/01 11:13:36;;;;;;;2.53;2.00;;;23.10;99.90;;;;;;4768166;30;20040;-72
2022/06/01 11:16:24;;;;;;;11.38;2.67;;;22.10;99.90;;;;;;4762302;30;20048;-72
2022/06/01 11:18:54;;;;;;;1.90;1.80;;;21.30;99.90;;;;;;4737426;30;20376;-71
2022/06/01 11:21:20;;;;;;;2.58;1.80;;;20.50;99.90;;;;;;4752877;30;20079;-71
2022/06/01 11:24:11;;;;;;;3.38;2.50;;;20.10;99.90;;;;;;4752648;30;20444;-72
2022/06/01 11:27:02;;;;;;;1.40;1.30;;;19.40;99.90;;;;;;4752357;30;20036;-72
2022/06/01 11:29:58;;;;;;;6.75;3.00;;;18.80;99.90;;;;;;4752490;30;20040;-71
2022/06/01 11:32:49;;;;;;;3.03;1.90;;;18.90;1.00;;;;;;4734919;30;20043;-72
2022/06/01 11:35:56;;;;;;;2.28;1.63;;;19.10;1.00;;;;;;4749135;30;20110;-72
2022/06/01 11:38:30;;;;;;;1.95;1.05;;;19.40;99.90;;;;;;4767662;30;20050;-72
2022/06/01 11:41:16;;;;;;;1.00;0.73;;;19.10;99.90;;;;;;4745975;30;20044;-72
2022/06/01 11:43:52;;;;;;;0.50;0.50;;;19.50;99.90;;;;;;4752322;30;20076;-72
2022/06/01 11:46:43;;;;;;;1.23;1.13;;;19.70;99.90;;;;;;4752356;30;20024;-72
2022/06/01 11:49:25;;;;;;;1.77;1.10;;;19.60;99.90;;;;;;4752065;30;20540;-72
2022/06/01 11:51:51;;;;;;;1.42;1.08;;;19.50;99.90;;;;;;4752112;30;20381;-72
2022/06/01 11:54:35;;;;;;;1.40;0.90;;;19.40;99.90;;;;;;4752052;30;20032;-72
2022/06/01 11:57:23;;;;;;;1.10;1.00;;;19.10;99.90;;;;;;4769462;30;20043;-72
2022/06/01 12:00:05;;;;;;;1.00;0.90;;;18.90;99.90;;;;;;4769805;30;20039;-72
2022/06/01 12:02:40;;;;;;;1.42;0.95;;;19.60;1.00;;;;;;4769841;30;20039;-72
2022/06/01 12:05:33;;;;;;;1.33;1.20;;;20.10;99.90;;;;;;4769606;30;20040;-72
2022/06/01 12:08:19;;;;;;;2.50;1.58;;;19.90;99.90;;;;;;4763079;30;20051;-72
2022/06/01 12:10:57;;;;;;;2.30;1.83;;;20.20;99.90;;;;;;4762514;30;20054;-72
2022/06/01 12:13:26;;;;;;;3.03;2.47;;;20.00;99.90;;;;;;4769370;30;20472;-72
2022/06/01 12:16:17;;;;;;;2.75;2.28;;;19.50;1.00;;;;;;4768646;30;20185;-72
2022/06/01 12:19:09;;;;;;;1.67;1.55;;;19.30;99.90;;;;;;4769593;30;20032;-71
2022/06/01 12:21:44;;;;;;;3.05;1.80;;;18.40;99.90;;;;;;4762312;30;20036;-71
2022/06/01 12:30:03;;;;;;;2.42;1.50;;;20.10;99.90;;;;;;4787248;30;20511;-71
2022/06/01 12:32:50;;;;;;;1.25;1.15;;;20.90;99.90;;;;;;4779933;29;20036;-71
2022/06/01 12:35:19;;;;;;;2.83;1.30;;;20.20;99.90;;;;;;4779831;30;20039;-71
2022/06/01 12:37:51;;;;;;;2.28;0.93;;;20.30;99.90;;;;;;4776803;30;20089;-71
2022/06/01 12:40:21;;;;;;;1.95;1.38;;;20.40;99.90;;;;;;4778805;30;20615;-71
2022/06/01 12:43:00;;;;;;;1.70;1.60;;;20.60;99.90;;;;;;4776628;30;20032;-71
2022/06/01 12:45:36;;;;;;;2.55;2.33;;;20.60;99.90;;;;;;4751501;30;20093;-71
2022/06/01 12:48:06;;;;;;;1.15;1.00;;;20.80;99.90;;;;;;4779167;30;20047;-71
2022/06/01 12:50:45;;;;;;;2.30;2.10;;;21.10;99.90;;;;;;4787102;29;20107;-72
2022/06/01 12:53:21;;;;;;;1.50;1.40;;;20.80;99.90;;;;;;4782735;30;20028;-72
2022/06/01 12:56:02;;;;;;;2.85;2.20;;;21.00;99.90;;;;;;4768963;30;20040;-71
2022/06/01 12:58:33;;;;;;;1.40;1.30;;;21.00;99.90;;;;;;4751500;30;20036;-72
2022/06/01 13:00:59;;;;;;;3.25;1.30;;;21.80;99.90;;;;;;4765706;30;20057;-71
2022/06/01 13:03:33;;;;;;;1.58;1.48;;;22.20;99.90;;;;;;4777653;30;20032;-71
2022/06/01 13:06:02;;;;;;;1.65;1.55;;;22.30;99.90;;;;;;4771537;29;20081;-71
2022/06/01 13:08:33;;;;;;;2.13;1.90;;;21.80;99.90;;;;;;4769062;30;20074;-71
2022/06/01 13:11:32;;;;;;;3.42;2.13;;;21.80;99.90;;;;;;4769013;30;20492;-72
2022/06/01 13:14:00;;;;;;;1.63;1.52;;;21.40;87.10;;;;;;4777157;30;20056;-73
2022/06/01 13:16:43;;;;;;;4.63;2.75;;;21.40;99.90;;;;;;4768953;30;20059;-72
2022/06/01 13:19:15;;;;;;;4.43;2.80;;;21.30;99.90;;;;;;4769282;30;20028;-72
2022/06/01 13:21:43;;;;;;;5.10;3.53;;;20.80;99.90;;;;;;4768795;30;20444;-71
2022/06/01 13:24:09;;;;;;;4.85;3.60;;;20.40;99.90;;;;;;4768963;30;20027;-72
2022/06/01 13:26:40;;;;;;;4.18;3.78;;;20.10;99.90;;;;;;4768643;30;20039;-72
2022/06/01 13:29:35;;;;;;;2.47;2.13;;;19.90;99.90;;;;;;4754427;30;20032;-72
2022/06/01 13:32:08;;;;;;;3.25;2.97;;;19.80;99.90;;;;;;4786494;30;20031;-71
2022/06/01 13:34:48;;;;;;;4.72;2.45;;;19.90;99.90;;;;;;4787148;29;20027;-72